sensor_id;sensor_type;location;lat;lon;timestamp;P1;durP1;ratioP1;P2;durP2;ratioP2
9418;SDS011;4748;50.802;7.132;2023-06-14T03:31:28;2.30;;;2.20;;
9418;SDS011;4748;50.802;7.132;2023-06-14T03:33:57;3.03;;;2.67;;
9418;SDS011;4748;50.802;7.132;2023-06-14T03:36:23;3.00;;;2.80;;
9418;SDS011;4748;50.802;7.132;2023-06-14T03:38:48;4.63;;;2.90;;
9418;SDS011;4748;50.802;7.132;2023-06-14T03:41:15;2.17;;;2.07;;
9418;SDS011;4748;50.802;7.132;2023-06-14T03:43:40;2.40;;;2.30;;
9418;SDS011;4748;50.802;7.132;2023-06-14T03:46:05;5.57;;;2.57;;
9418;SDS011;4748;50.802;7.132;2023-06-14T03:48:31;6.23;;;2.63;;
9418;SDS011;4748;50.802;7.132;2023-06-14T03:50:56;2.67;;;2.47;;
9418;SDS011;4748;50.802;7.132;2023-06-14T03:53:22;3.50;;;2.53;;
9418;SDS011;4748;50.802;7.132;2023-06-14T03:55:52;3.30;;;2.87;;
9418;SDS011;4748;50.802;7.132;2023-06-14T03:58:19;2.93;;;2.30;;
9418;SDS011;4748;50.802;7.132;2023-06-14T04:00:44;4.07;;;2.23;;
9418;SDS011;4748;50.802;7.132;2023-06-14T04:03:10;7.17;;;2.43;;
9418;SDS011;4748;50.802;7.132;2023-06-14T04:05:38;4.70;;;2.67;;
9418;SDS011;4748;50.802;7.132;2023-06-14T04:08:07;4.90;;;2.60;;
9418;SDS011;4748;50.802;7.132;2023-06-14T04:10:33;4.53;;;2.37;;
9418;SDS011;4748;50.802;7.132;2023-06-14T04:12:59;3.87;;;2.40;;
9418;SDS011;4748;50.802;7.132;2023-06-14T04:15:24;2.63;;;2.43;;
9418;SDS011;4748;50.802;7.132;2023-06-14T04:17:50;2.40;;;2.30;;
9418;SDS011;4748;50.802;7.132;2023-06-14T04:20:15;3.07;;;2.80;;
9418;SDS011;4748;50.802;7.132;2023-06-14T04:22:42;4.17;;;3.47;;
9418;SDS011;4748;50.802;7.132;2023-06-14T04:25:08;3.40;;;3.10;;
9418;SDS011;4748;50.802;7.132;2023-06-14T04:27:33;4.73;;;3.50;;
9418;SDS011;4748;50.802;7.132;2023-06-14T04:30:01;3.23;;;2.80;;
9418;SDS011;4748;50.802;7.132;2023-06-14T04:32:27;2.90;;;2.70;;
9418;SDS011;4748;50.802;7.132;2023-06-14T04:34:54;2.80;;;2.60;;
9418;SDS011;4748;50.802;7.132;2023-06-14T04:37:20;2.70;;;2.50;;
9418;SDS011;4748;50.802;7.132;2023-06-14T04:39:47;3.10;;;2.90;;
9418;SDS011;4748;50.802;7.132;2023-06-14T04:42:13;4.73;;;3.13;;
9418;SDS011;4748;50.802;7.132;2023-06-14T04:44:40;3.63;;;3.33;;
9418;SDS011;4748;50.802;7.132;2023-06-14T04:47:06;3.30;;;3.17;;
9418;SDS011;4748;50.802;7.132;2023-06-14T04:49:32;2.37;;;2.17;;
9418;SDS011;4748;50.802;7.132;2023-06-14T04:51:59;2.43;;;2.33;;
9418;SDS011;4748;50.802;7.132;2023-06-14T04:54:26;3.30;;;2.37;;
9418;SDS011;4748;50.802;7.132;2023-06-14T04:56:52;3.57;;;2.73;;
9418;SDS011;4748;50.802;7.132;2023-06-14T04:59:18;2.97;;;2.67;;
9418;SDS011;4748;50.802;7.132;2023-06-14T05:01:44;3.13;;;2.70;;
9418;SDS011;4748;50.802;7.132;2023-06-14T05:04:13;2.23;;;2.10;;
9418;SDS011;4748;50.802;7.132;2023-06-14T05:06:42;5.20;;;3.07;;
9418;SDS011;4748;50.802;7.132;2023-06-14T05:09:09;2.35;;;2.10;;
9418;SDS011;4748;50.802;7.132;2023-06-14T05:11:35;2.60;;;2.40;;
9418;SDS011;4748;50.802;7.132;2023-06-14T05:14:01;4.13;;;2.10;;
9418;SDS011;4748;50.802;7.132;2023-06-14T05:16:26;4.82;;;2.50;;
9418;SDS011;4748;50.802;7.132;2023-06-14T05:18:54;2.53;;;2.33;;
9418;SDS011;4748;50.802;7.132;2023-06-14T05:21:20;2.17;;;2.08;;
9418;SDS011;4748;50.802;7.132;2023-06-14T05:23:45;2.58;;;2.38;;
9418;SDS011;4748;50.802;7.132;2023-06-14T05:26:11;2.60;;;2.40;;
9418;SDS011;4748;50.802;7.132;2023-06-14T05:28:36;2.07;;;1.97;;
9418;SDS011;4748;50.802;7.132;2023-06-14T05:31:02;2.20;;;2.00;;
9418;SDS011;4748;50.802;7.132;2023-06-14T05:33:27;2.57;;;2.37;;
9418;SDS011;4748;50.802;7.132;2023-06-14T05:35:52;3.25;;;2.75;;
9418;SDS011;4748;50.802;7.132;2023-06-14T05:38:18;5.05;;;2.05;;
9418;SDS011;4748;50.802;7.132;2023-06-14T05:40:43;4.30;;;2.53;;
9418;SDS011;4748;50.802;7.132;2023-06-14T05:43:08;2.10;;;1.98;;
9418;SDS011;4748;50.802;7.132;2023-06-14T05:45:34;3.42;;;1.98;;
9418;SDS011;4748;50.802;7.132;2023-06-14T05:47:59;3.60;;;1.92;;
9418;SDS011;4748;50.802;7.132;2023-06-14T05:50:25;2.65;;;1.55;;
9418;SDS011;4748;50.802;7.132;2023-06-14T05:52:50;6.75;;;1.70;;
9418;SDS011;4748;50.802;7.132;2023-06-14T05:55:16;4.50;;;1.70;;
9418;SDS011;4748;50.802;7.132;2023-06-14T05:57:42;4.28;;;1.90;;
9418;SDS011;4748;50.802;7.132;2023-06-14T06:00:07;2.25;;;1.98;;
9418;SDS011;4748;50.802;7.132;2023-06-14T06:02:39;3.80;;;1.50;;
9418;SDS011;4748;50.802;7.132;2023-06-14T06:05:06;1.48;;;1.38;;
9418;SDS011;4748;50.802;7.132;2023-06-14T06:07:31;1.42;;;1.13;;
9418;SDS011;4748;50.802;7.132;2023-06-14T06:09:57;1.10;;;1.10;;
9418;SDS011;4748;50.802;7.132;2023-06-14T06:12:22;1.65;;;1.55;;
9418;SDS011;4748;50.802;7.132;2023-06-14T06:14:47;6.88;;;1.63;;
9418;SDS011;4748;50.802;7.132;2023-06-14T06:17:13;14.75;;;1.83;;
9418;SDS011;4748;50.802;7.132;2023-06-14T06:19:38;1.85;;;1.35;;
9418;SDS011;4748;50.802;7.132;2023-06-14T06:22:03;7.30;;;1.40;;
9418;SDS011;4748;50.802;7.132;2023-06-14T06:24:31;1.80;;;1.38;;
9418;SDS011;4748;50.802;7.132;2023-06-14T06:26:57;7.97;;;1.30;;
9418;SDS011;4748;50.802;7.132;2023-06-14T06:29:22;4.50;;;2.05;;
9418;SDS011;4748;50.802;7.132;2023-06-14T06:31:47;2.42;;;1.85;;
9418;SDS011;4748;50.802;7.132;2023-06-14T06:34:13;4.82;;;1.55;;
9418;SDS011;4748;50.802;7.132;2023-06-14T06:36:38;3.00;;;1.67;;
9418;SDS011;4748;50.802;7.132;2023-06-14T06:39:04;1.30;;;1.30;;
9418;SDS011;4748;50.802;7.132;2023-06-14T06:41:34;1.30;;;1.30;;
9418;SDS011;4748;50.802;7.132;2023-06-14T06:44:02;1.67;;;1.55;;
9418;SDS011;4748;50.802;7.132;2023-06-14T06:46:28;1.25;;;1.15;;
9418;SDS011;4748;50.802;7.132;2023-06-14T06:48:53;4.32;;;1.80;;
9418;SDS011;4748;50.802;7.132;2023-06-14T06:51:19;1.77;;;1.67;;
9418;SDS011;4748;50.802;7.132;2023-06-14T06:53:48;4.20;;;1.50;;
9418;SDS011;4748;50.802;7.132;2023-06-14T06:56:17;1.85;;;1.27;;
9418;SDS011;4748;50.802;7.132;2023-06-14T06:58:42;1.50;;;1.38;;
9418;SDS011;4748;50.802;7.132;2023-06-14T07:01:08;3.33;;;1.40;;
9418;SDS011;4748;50.802;7.132;2023-06-14T07:03:34;1.15;;;1.15;;
9418;SDS011;4748;50.802;7.132;2023-06-14T07:06:00;3.60;;;1.98;;
9418;SDS011;4748;50.802;7.132;2023-06-14T07:08:25;2.83;;;1.45;;
9418;SDS011;4748;50.802;7.132;2023-06-14T07:10:51;3.38;;;1.45;;
9418;SDS011;4748;50.802;7.132;2023-06-14T07:13:17;1.20;;;1.20;;
9418;SDS011;4748;50.802;7.132;2023-06-14T07:15:42;2.05;;;1.20;;
9418;SDS011;4748;50.802;7.132;2023-06-14T07:18:08;1.30;;;1.20;;
9418;SDS011;4748;50.802;7.132;2023-06-14T07:20:33;3.92;;;1.58;;
9418;SDS011;4748;50.802;7.132;2023-06-14T07:22:59;1.48;;;1.10;;
9418;SDS011;4748;50.802;7.132;2023-06-14T07:25:25;1.83;;;1.30;;
9418;SDS011;4748;50.802;7.132;2023-06-14T07:27:51;1.15;;;1.10;;
9418;SDS011;4748;50.802;7.132;2023-06-14T07:30:16;1.10;;;1.10;;
9418;SDS011;4748;50.802;7.132;2023-06-14T07:32:41;2.40;;;0.98;;
9418;SDS011;4748;50.802;7.132;2023-06-14T07:35:07;8.95;;;1.35;;
9418;SDS011;4748;50.802;7.132;2023-06-14T07:37:32;1.10;;;1.00;;
9418;SDS011;4748;50.802;7.132;2023-06-14T07:39:58;1.77;;;1.10;;
9418;SDS011;4748;50.802;7.132;2023-06-14T07:42:23;2.05;;;1.08;;
9418;SDS011;4748;50.802;7.132;2023-06-14T07:44:49;1.52;;;0.70;;
9418;SDS011;4748;50.802;7.132;2023-06-14T07:47:15;0.60;;;0.60;;
9418;SDS011;4748;50.802;7.132;2023-06-14T07:49:41;2.05;;;1.00;;
9418;SDS011;4748;50.802;7.132;2023-06-14T07:52:06;4.50;;;0.60;;
9418;SDS011;4748;50.802;7.132;2023-06-14T07:54:32;0.57;;;0.57;;
9418;SDS011;4748;50.802;7.132;2023-06-14T07:56:57;2.42;;;0.70;;
9418;SDS011;4748;50.802;7.132;2023-06-14T07:59:25;0.50;;;0.50;;
9418;SDS011;4748;50.802;7.132;2023-06-14T08:01:51;0.50;;;0.50;;
9418;SDS011;4748;50.802;7.132;2023-06-14T08:04:16;1.27;;;0.50;;
9418;SDS011;4748;50.802;7.132;2023-06-14T08:06:41;0.63;;;0.40;;
9418;SDS011;4748;50.802;7.132;2023-06-14T08:09:11;2.95;;;1.35;;
9418;SDS011;4748;50.802;7.132;2023-06-14T08:11:38;2.90;;;0.50;;
9418;SDS011;4748;50.802;7.132;2023-06-14T08:14:03;0.82;;;0.82;;
9418;SDS011;4748;50.802;7.132;2023-06-14T08:16:29;0.73;;;0.55;;
9418;SDS011;4748;50.802;7.132;2023-06-14T08:18:54;1.10;;;0.60;;
9418;SDS011;4748;50.802;7.132;2023-06-14T08:21:20;1.80;;;0.70;;
9418;SDS011;4748;50.802;7.132;2023-06-14T08:23:45;1.45;;;0.50;;
9418;SDS011;4748;50.802;7.132;2023-06-14T08:26:11;2.95;;;0.65;;
9418;SDS011;4748;50.802;7.132;2023-06-14T08:28:36;0.60;;;0.60;;
9418;SDS011;4748;50.802;7.132;2023-06-14T08:31:02;0.70;;;0.70;;
9418;SDS011;4748;50.802;7.132;2023-06-14T08:33:27;0.60;;;0.60;;
9418;SDS011;4748;50.802;7.132;2023-06-14T08:35:53;0.47;;;0.47;;
9418;SDS011;4748;50.802;7.132;2023-06-14T08:38:18;2.30;;;0.65;;
9418;SDS011;4748;50.802;7.132;2023-06-14T08:40:44;2.08;;;0.68;;
9418;SDS011;4748;50.802;7.132;2023-06-14T08:43:12;2.25;;;0.47;;
9418;SDS011;4748;50.802;7.132;2023-06-14T08:45:38;0.75;;;0.70;;
9418;SDS011;4748;50.802;7.132;2023-06-14T08:48:03;0.50;;;0.50;;
9418;SDS011;4748;50.802;7.132;2023-06-14T08:50:31;0.80;;;0.50;;
9418;SDS011;4748;50.802;7.132;2023-06-14T08:52:57;0.30;;;0.30;;
9418;SDS011;4748;50.802;7.132;2023-06-14T08:55:27;0.52;;;0.52;;
9418;SDS011;4748;50.802;7.132;2023-06-14T08:57:53;8.35;;;0.60;;
9418;SDS011;4748;50.802;7.132;2023-06-14T09:00:20;3.30;;;0.55;;
9418;SDS011;4748;50.802;7.132;2023-06-14T09:02:46;1.42;;;0.75;;
9418;SDS011;4748;50.802;7.132;2023-06-14T09:05:14;0.95;;;0.40;;
9418;SDS011;4748;50.802;7.132;2023-06-14T09:07:43;4.57;;;0.60;;
9418;SDS011;4748;50.802;7.132;2023-06-14T09:10:10;0.50;;;0.50;;
9418;SDS011;4748;50.802;7.132;2023-06-14T09:12:38;1.88;;;0.60;;
9418;SDS011;4748;50.802;7.132;2023-06-14T09:15:07;6.25;;;0.90;;
9418;SDS011;4748;50.802;7.132;2023-06-14T09:17:34;0.70;;;0.70;;
9418;SDS011;4748;50.802;7.132;2023-06-14T09:20:04;2.28;;;0.80;;
9418;SDS011;4748;50.802;7.132;2023-06-14T09:22:31;0.77;;;0.77;;
9418;SDS011;4748;50.802;7.132;2023-06-14T09:24:57;2.67;;;0.80;;
9418;SDS011;4748;50.802;7.132;2023-06-14T09:27:25;2.45;;;0.50;;
9418;SDS011;4748;50.802;7.132;2023-06-14T09:29:54;0.85;;;0.50;;
9418;SDS011;4748;50.802;7.132;2023-06-14T09:32:23;3.83;;;0.60;;
9418;SDS011;4748;50.802;7.132;2023-06-14T09:34:50;0.55;;;0.55;;
9418;SDS011;4748;50.802;7.132;2023-06-14T09:37:28;0.70;;;0.70;;
9418;SDS011;4748;50.802;7.132;2023-06-14T09:39:54;1.75;;;0.77;;
9418;SDS011;4748;50.802;7.132;2023-06-14T09:42:19;3.20;;;0.75;;
9418;SDS011;4748;50.802;7.132;2023-06-14T09:44:48;0.55;;;0.55;;
9418;SDS011;4748;50.802;7.132;2023-06-14T09:47:15;2.20;;;0.80;;
9418;SDS011;4748;50.802;7.132;2023-06-14T09:49:41;11.82;;;0.85;;
9418;SDS011;4748;50.802;7.132;2023-06-14T09:52:08;3.25;;;0.50;;
9418;SDS011;4748;50.802;7.132;2023-06-14T09:54:38;0.65;;;0.65;;
9418;SDS011;4748;50.802;7.132;2023-06-14T09:57:07;0.70;;;0.70;;
9418;SDS011;4748;50.802;7.132;2023-06-14T09:59:36;1.27;;;0.70;;
9418;SDS011;4748;50.802;7.132;2023-06-14T10:02:07;0.60;;;0.60;;
9418;SDS011;4748;50.802;7.132;2023-06-14T10:07:39;2.25;;;0.63;;
9418;SDS011;4748;50.802;7.132;2023-06-14T10:10:07;0.93;;;0.80;;
9418;SDS011;4748;50.802;7.132;2023-06-14T10:12:33;2.67;;;0.82;;
9418;SDS011;4748;50.802;7.132;2023-06-14T10:14:59;0.43;;;0.43;;
9418;SDS011;4748;50.802;7.132;2023-06-14T10:17:27;0.63;;;0.60;;
9418;SDS011;4748;50.802;7.132;2023-06-14T10:19:57;0.85;;;0.60;;
9418;SDS011;4748;50.802;7.132;2023-06-14T10:22:58;0.80;;;0.80;;
9418;SDS011;4748;50.802;7.132;2023-06-14T10:25:28;0.65;;;0.63;;
9418;SDS011;4748;50.802;7.132;2023-06-14T10:30:38;3.00;;;0.60;;
9418;SDS011;4748;50.802;7.132;2023-06-14T10:33:04;1.92;;;0.45;;
9418;SDS011;4748;50.802;7.132;2023-06-14T10:35:32;0.40;;;0.40;;
9418;SDS011;4748;50.802;7.132;2023-06-14T10:38:11;0.68;;;0.68;;
9418;SDS011;4748;50.802;7.132;2023-06-14T10:40:38;0.40;;;0.40;;
9418;SDS011;4748;50.802;7.132;2023-06-14T10:43:21;0.77;;;0.77;;
9418;SDS011;4748;50.802;7.132;2023-06-14T10:48:43;0.75;;;0.75;;
9418;SDS011;4748;50.802;7.132;2023-06-14T10:51:15;0.50;;;0.50;;
9418;SDS011;4748;50.802;7.132;2023-06-14T10:53:49;0.50;;;0.30;;
9418;SDS011;4748;50.802;7.132;2023-06-14T10:56:23;0.95;;;0.40;;
9418;SDS011;4748;50.802;7.132;2023-06-14T10:58:51;0.50;;;0.50;;
9418;SDS011;4748;50.802;7.132;2023-06-14T11:01:18;1.10;;;0.50;;
9418;SDS011;4748;50.802;7.132;2023-06-14T11:04:06;0.50;;;0.50;;
9418;SDS011;4748;50.802;7.132;2023-06-14T11:06:43;1.95;;;0.50;;
9418;SDS011;4748;50.802;7.132;2023-06-14T11:11:48;3.13;;;0.40;;
9418;SDS011;4748;50.802;7.132;2023-06-14T11:14:16;0.68;;;0.68;;
9418;SDS011;4748;50.802;7.132;2023-06-14T11:16:42;0.60;;;0.60;;
9418;SDS011;4748;50.802;7.132;2023-06-14T11:19:13;2.75;;;0.60;;
9418;SDS011;4748;50.802;7.132;2023-06-14T11:21:41;0.63;;;0.60;;
9418;SDS011;4748;50.802;7.132;2023-06-14T11:24:09;1.58;;;0.60;;
9418;SDS011;4748;50.802;7.132;2023-06-14T11:26:37;0.50;;;0.50;;
9418;SDS011;4748;50.802;7.132;2023-06-14T11:29:03;0.60;;;0.60;;
9418;SDS011;4748;50.802;7.132;2023-06-14T11:31:29;0.70;;;0.70;;
9418;SDS011;4748;50.802;7.132;2023-06-14T11:33:55;0.60;;;0.60;;
9418;SDS011;4748;50.802;7.132;2023-06-14T11:36:22;0.73;;;0.73;;
9418;SDS011;4748;50.802;7.132;2023-06-14T11:38:48;4.40;;;0.57;;
9418;SDS011;4748;50.802;7.132;2023-06-14T11:41:13;2.78;;;0.57;;
9418;SDS011;4748;50.802;7.132;2023-06-14T11:43:39;0.45;;;0.45;;
9418;SDS011;4748;50.802;7.132;2023-06-14T11:46:06;0.55;;;0.50;;
9418;SDS011;4748;50.802;7.132;2023-06-14T11:48:41;4.68;;;0.68;;
9418;SDS011;4748;50.802;7.132;2023-06-14T11:51:07;2.95;;;0.55;;
9418;SDS011;4748;50.802;7.132;2023-06-14T11:53:33;1.00;;;0.57;;
9418;SDS011;4748;50.802;7.132;2023-06-14T11:55:59;2.35;;;0.47;;
9418;SDS011;4748;50.802;7.132;2023-06-14T11:58:25;1.48;;;0.45;;
9418;SDS011;4748;50.802;7.132;2023-06-14T12:00:52;0.40;;;0.40;;
9418;SDS011;4748;50.802;7.132;2023-06-14T12:03:22;0.52;;;0.52;;
9418;SDS011;4748;50.802;7.132;2023-06-14T12:05:49;2.38;;;0.63;;
9418;SDS011;4748;50.802;7.132;2023-06-14T12:08:15;0.40;;;0.40;;
9418;SDS011;4748;50.802;7.132;2023-06-14T12:10:42;1.83;;;0.60;;
9418;SDS011;4748;50.802;7.132;2023-06-14T12:13:10;0.90;;;0.40;;
9418;SDS011;4748;50.802;7.132;2023-06-14T12:15:36;0.30;;;0.30;;
9418;SDS011;4748;50.802;7.132;2023-06-14T12:18:01;1.27;;;0.50;;
9418;SDS011;4748;50.802;7.132;2023-06-14T12:20:31;1.10;;;0.40;;
9418;SDS011;4748;50.802;7.132;2023-06-14T12:22:58;1.02;;;0.40;;
9418;SDS011;4748;50.802;7.132;2023-06-14T12:25:35;0.63;;;0.40;;
9418;SDS011;4748;50.802;7.132;2023-06-14T12:28:06;1.80;;;0.60;;
9418;SDS011;4748;50.802;7.132;2023-06-14T12:30:32;2.38;;;0.70;;
9418;SDS011;4748;50.802;7.132;2023-06-14T12:32:58;0.63;;;0.40;;
9418;SDS011;4748;50.802;7.132;2023-06-14T12:35:24;6.18;;;0.52;;
9418;SDS011;4748;50.802;7.132;2023-06-14T12:37:49;1.10;;;0.40;;
9418;SDS011;4748;50.802;7.132;2023-06-14T12:40:15;1.67;;;0.40;;
9418;SDS011;4748;50.802;7.132;2023-06-14T12:42:41;6.13;;;0.60;;
9418;SDS011;4748;50.802;7.132;2023-06-14T12:45:10;3.30;;;0.40;;
9418;SDS011;4748;50.802;7.132;2023-06-14T12:47:35;0.40;;;0.40;;
9418;SDS011;4748;50.802;7.132;2023-06-14T12:50:01;0.38;;;0.38;;
9418;SDS011;4748;50.802;7.132;2023-06-14T12:52:27;0.40;;;0.40;;
9418;SDS011;4748;50.802;7.132;2023-06-14T12:54:52;0.68;;;0.43;;
9418;SDS011;4748;50.802;7.132;2023-06-14T12:57:18;0.40;;;0.40;;
9418;SDS011;4748;50.802;7.132;2023-06-14T12:59:45;0.40;;;0.40;;
9418;SDS011;4748;50.802;7.132;2023-06-14T13:02:15;3.95;;;0.65;;
9418;SDS011;4748;50.802;7.132;2023-06-14T13:04:42;0.60;;;0.60;;
9418;SDS011;4748;50.802;7.132;2023-06-14T13:07:08;0.50;;;0.50;;
9418;SDS011;4748;50.802;7.132;2023-06-14T13:09:38;0.40;;;0.40;;
9418;SDS011;4748;50.802;7.132;2023-06-14T13:12:03;0.52;;;0.52;;
9418;SDS011;4748;50.802;7.132;2023-06-14T13:14:32;0.47;;;0.47;;
9418;SDS011;4748;50.802;7.132;2023-06-14T13:16:57;0.60;;;0.60;;
9418;SDS011;4748;50.802;7.132;2023-06-14T13:19:23;0.60;;;0.57;;
9418;SDS011;4748;50.802;7.132;2023-06-14T13:21:48;0.40;;;0.40;;
9418;SDS011;4748;50.802;7.132;2023-06-14T13:24:14;4.57;;;0.77;;
9418;SDS011;4748;50.802;7.132;2023-06-14T13:26:42;1.35;;;0.80;;
9418;SDS011;4748;50.802;7.132;2023-06-14T13:29:10;1.00;;;0.70;;
9418;SDS011;4748;50.802;7.132;2023-06-14T13:31:36;0.60;;;0.60;;
9418;SDS011;4748;50.802;7.132;2023-06-14T13:34:01;6.07;;;1.08;;
9418;SDS011;4748;50.802;7.132;2023-06-14T13:36:27;1.45;;;1.05;;
9418;SDS011;4748;50.802;7.132;2023-06-14T13:38:52;0.95;;;0.70;;
9418;SDS011;4748;50.802;7.132;2023-06-14T13:41:19;0.70;;;0.70;;
9418;SDS011;4748;50.802;7.132;2023-06-14T13:43:45;0.90;;;0.90;;
9418;SDS011;4748;50.802;7.132;2023-06-14T13:46:10;0.70;;;0.70;;
9418;SDS011;4748;50.802;7.132;2023-06-14T13:48:36;0.93;;;0.63;;
9418;SDS011;4748;50.802;7.132;2023-06-14T13:51:01;0.95;;;0.95;;
9418;SDS011;4748;50.802;7.132;2023-06-14T13:53:29;0.70;;;0.70;;
9418;SDS011;4748;50.802;7.132;2023-06-14T13:55:54;1.08;;;0.60;;
9418;SDS011;4748;50.802;7.132;2023-06-14T13:58:19;1.40;;;0.80;;
9418;SDS011;4748;50.802;7.132;2023-06-14T14:00:45;2.22;;;0.90;;
9418;SDS011;4748;50.802;7.132;2023-06-14T14:03:10;2.35;;;0.98;;
9418;SDS011;4748;50.802;7.132;2023-06-14T14:05:36;2.47;;;0.75;;
9418;SDS011;4748;50.802;7.132;2023-06-14T14:08:01;2.60;;;0.90;;
9418;SDS011;4748;50.802;7.132;2023-06-14T14:10:27;0.60;;;0.57;;
9418;SDS011;4748;50.802;7.132;2023-06-14T14:12:52;1.48;;;0.95;;
9418;SDS011;4748;50.802;7.132;2023-06-14T14:15:19;0.70;;;0.68;;
9418;SDS011;4748;50.802;7.132;2023-06-14T14:17:45;0.80;;;0.80;;
9418;SDS011;4748;50.802;7.132;2023-06-14T14:20:11;0.60;;;0.60;;
9418;SDS011;4748;50.802;7.132;2023-06-14T14:22:43;0.80;;;0.80;;
9418;SDS011;4748;50.802;7.132;2023-06-14T14:25:09;1.02;;;0.70;;
9418;SDS011;4748;50.802;7.132;2023-06-14T14:27:35;3.53;;;0.70;;
9418;SDS011;4748;50.802;7.132;2023-06-14T14:30:02;1.75;;;0.80;;
9418;SDS011;4748;50.802;7.132;2023-06-14T14:32:28;0.75;;;0.75;;
9418;SDS011;4748;50.802;7.132;2023-06-14T14:34:53;0.77;;;0.77;;
9418;SDS011;4748;50.802;7.132;2023-06-14T14:37:19;0.70;;;0.70;;
9418;SDS011;4748;50.802;7.132;2023-06-14T14:39:44;0.85;;;0.85;;
9418;SDS011;4748;50.802;7.132;2023-06-14T14:42:10;0.70;;;0.70;;
9418;SDS011;4748;50.802;7.132;2023-06-14T14:44:37;4.32;;;0.50;;
9418;SDS011;4748;50.802;7.132;2023-06-14T14:47:03;0.70;;;0.70;;
9418;SDS011;4748;50.802;7.132;2023-06-14T14:49:28;1.55;;;0.70;;
9418;SDS011;4748;50.802;7.132;2023-06-14T14:51:56;0.68;;;0.68;;
9418;SDS011;4748;50.802;7.132;2023-06-14T14:54:21;2.42;;;0.70;;
9418;SDS011;4748;50.802;7.132;2023-06-14T14:56:46;0.75;;;0.75;;
9418;SDS011;4748;50.802;7.132;2023-06-14T14:59:12;4.00;;;0.80;;
9418;SDS011;4748;50.802;7.132;2023-06-14T15:01:37;0.75;;;0.75;;
9418;SDS011;4748;50.802;7.132;2023-06-14T15:04:03;0.68;;;0.68;;
9418;SDS011;4748;50.802;7.132;2023-06-14T15:06:28;1.70;;;0.70;;
9418;SDS011;4748;50.802;7.132;2023-06-14T15:08:54;0.98;;;0.90;;
9418;SDS011;4748;50.802;7.132;2023-06-14T15:11:19;0.75;;;0.75;;
9418;SDS011;4748;50.802;7.132;2023-06-14T15:13:44;1.27;;;1.08;;
9418;SDS011;4748;50.802;7.132;2023-06-14T15:16:10;3.22;;;0.95;;
9418;SDS011;4748;50.802;7.132;2023-06-14T15:18:35;0.80;;;0.77;;
9418;SDS011;4748;50.802;7.132;2023-06-14T15:21:01;0.60;;;0.60;;
9418;SDS011;4748;50.802;7.132;2023-06-14T15:23:26;0.82;;;0.82;;
9418;SDS011;4748;50.802;7.132;2023-06-14T15:25:51;1.25;;;0.70;;
9418;SDS011;4748;50.802;7.132;2023-06-14T15:28:17;0.65;;;0.65;;
9418;SDS011;4748;50.802;7.132;2023-06-14T15:30:42;0.82;;;0.80;;
9418;SDS011;4748;50.802;7.132;2023-06-14T15:33:08;0.60;;;0.60;;
9418;SDS011;4748;50.802;7.132;2023-06-14T15:35:33;1.40;;;0.80;;
9418;SDS011;4748;50.802;7.132;2023-06-14T15:37:58;1.20;;;1.20;;
9418;SDS011;4748;50.802;7.132;2023-06-14T15:40:24;0.80;;;0.80;;
9418;SDS011;4748;50.802;7.132;2023-06-14T15:42:50;1.88;;;0.70;;
9418;SDS011;4748;50.802;7.132;2023-06-14T15:45:16;0.93;;;0.93;;
9418;SDS011;4748;50.802;7.132;2023-06-14T15:47:41;0.70;;;0.70;;
9418;SDS011;4748;50.802;7.132;2023-06-14T15:50:07;0.85;;;0.80;;
9418;SDS011;4748;50.802;7.132;2023-06-14T15:52:33;0.70;;;0.70;;
9418;SDS011;4748;50.802;7.132;2023-06-14T15:54:58;0.70;;;0.70;;
9418;SDS011;4748;50.802;7.132;2023-06-14T15:57:24;0.70;;;0.70;;
9418;SDS011;4748;50.802;7.132;2023-06-14T15:59:49;1.17;;;1.08;;
9418;SDS011;4748;50.802;7.132;2023-06-14T16:02:14;0.77;;;0.73;;
9418;SDS011;4748;50.802;7.132;2023-06-14T16:04:40;0.93;;;0.90;;
9418;SDS011;4748;50.802;7.132;2023-06-14T16:07:05;2.10;;;0.75;;
9418;SDS011;4748;50.802;7.132;2023-06-14T16:09:31;0.88;;;0.88;;
9418;SDS011;4748;50.802;7.132;2023-06-14T16:11:56;1.33;;;1.13;;
9418;SDS011;4748;50.802;7.132;2023-06-14T16:14:22;0.73;;;0.73;;
9418;SDS011;4748;50.802;7.132;2023-06-14T16:16:47;0.90;;;0.90;;
9418;SDS011;4748;50.802;7.132;2023-06-14T16:19:13;1.00;;;1.00;;
9418;SDS011;4748;50.802;7.132;2023-06-14T16:21:38;0.95;;;0.93;;
9418;SDS011;4748;50.802;7.132;2023-06-14T16:24:04;0.80;;;0.80;;
9418;SDS011;4748;50.802;7.132;2023-06-14T16:26:29;0.70;;;0.70;;
9418;SDS011;4748;50.802;7.132;2023-06-14T16:28:55;1.00;;;1.00;;
9418;SDS011;4748;50.802;7.132;2023-06-14T16:31:20;0.77;;;0.77;;
9418;SDS011;4748;50.802;7.132;2023-06-14T16:33:47;1.38;;;0.85;;
9418;SDS011;4748;50.802;7.132;2023-06-14T16:36:12;0.70;;;0.70;;
9418;SDS011;4748;50.802;7.132;2023-06-14T16:38:38;1.08;;;1.08;;
9418;SDS011;4748;50.802;7.132;2023-06-14T16:41:03;4.85;;;0.68;;
9418;SDS011;4748;50.802;7.132;2023-06-14T16:43:29;0.82;;;0.82;;
9418;SDS011;4748;50.802;7.132;2023-06-14T16:45:57;1.00;;;1.00;;
9418;SDS011;4748;50.802;7.132;2023-06-14T16:48:23;0.95;;;0.90;;
9418;SDS011;4748;50.802;7.132;2023-06-14T16:50:48;1.05;;;0.93;;
9418;SDS011;4748;50.802;7.132;2023-06-14T16:53:13;0.80;;;0.75;;
9418;SDS011;4748;50.802;7.132;2023-06-14T16:55:39;2.67;;;1.15;;
9418;SDS011;4748;50.802;7.132;2023-06-14T16:58:04;0.75;;;0.75;;
9418;SDS011;4748;50.802;7.132;2023-06-14T17:00:30;1.20;;;1.20;;
9418;SDS011;4748;50.802;7.132;2023-06-14T17:02:55;2.20;;;1.15;;
9418;SDS011;4748;50.802;7.132;2023-06-14T17:05:21;1.45;;;1.35;;
9418;SDS011;4748;50.802;7.132;2023-06-14T17:07:46;1.00;;;1.00;;
9418;SDS011;4748;50.802;7.132;2023-06-14T17:10:12;2.85;;;2.10;;
9418;SDS011;4748;50.802;7.132;2023-06-14T17:12:37;1.25;;;1.15;;
9418;SDS011;4748;50.802;7.132;2023-06-14T17:15:03;1.60;;;1.45;;
9418;SDS011;4748;50.802;7.132;2023-06-14T17:17:29;1.05;;;1.05;;
9418;SDS011;4748;50.802;7.132;2023-06-14T17:19:55;1.13;;;1.02;;
9418;SDS011;4748;50.802;7.132;2023-06-14T17:22:21;2.38;;;1.20;;
9418;SDS011;4748;50.802;7.132;2023-06-14T17:24:46;1.00;;;1.00;;
9418;SDS011;4748;50.802;7.132;2023-06-14T17:27:11;1.08;;;1.08;;
9418;SDS011;4748;50.802;7.132;2023-06-14T17:29:37;1.00;;;1.00;;
9418;SDS011;4748;50.802;7.132;2023-06-14T17:32:02;0.90;;;0.90;;
9418;SDS011;4748;50.802;7.132;2023-06-14T17:34:29;1.15;;;1.15;;
9418;SDS011;4748;50.802;7.132;2023-06-14T17:36:54;2.15;;;1.10;;
9418;SDS011;4748;50.802;7.132;2023-06-14T17:39:19;1.48;;;0.80;;
9418;SDS011;4748;50.802;7.132;2023-06-14T17:41:45;0.98;;;0.98;;
9418;SDS011;4748;50.802;7.132;2023-06-14T17:44:11;1.33;;;0.95;;
9418;SDS011;4748;50.802;7.132;2023-06-14T17:46:37;2.92;;;1.08;;
9418;SDS011;4748;50.802;7.132;2023-06-14T17:49:02;2.47;;;1.13;;
9418;SDS011;4748;50.802;7.132;2023-06-14T17:51:28;4.22;;;1.13;;
9418;SDS011;4748;50.802;7.132;2023-06-14T17:53:53;1.58;;;1.00;;
9418;SDS011;4748;50.802;7.132;2023-06-14T17:56:18;1.55;;;1.00;;
9418;SDS011;4748;50.802;7.132;2023-06-14T17:58:45;1.55;;;0.88;;
9418;SDS011;4748;50.802;7.132;2023-06-14T18:01:11;1.58;;;1.20;;
9418;SDS011;4748;50.802;7.132;2023-06-14T18:03:36;1.20;;;1.20;;
9418;SDS011;4748;50.802;7.132;2023-06-14T18:06:02;1.63;;;1.20;;
9418;SDS011;4748;50.802;7.132;2023-06-14T18:08:29;0.90;;;0.90;;
9418;SDS011;4748;50.802;7.132;2023-06-14T18:10:55;1.05;;;1.05;;
9418;SDS011;4748;50.802;7.132;2023-06-14T18:13:20;4.00;;;1.55;;
9418;SDS011;4748;50.802;7.132;2023-06-14T18:15:45;0.90;;;0.90;;
9418;SDS011;4748;50.802;7.132;2023-06-14T18:18:11;1.92;;;1.10;;
9418;SDS011;4748;50.802;7.132;2023-06-14T18:20:36;0.90;;;0.90;;
9418;SDS011;4748;50.802;7.132;2023-06-14T18:23:01;1.55;;;1.10;;
9418;SDS011;4748;50.802;7.132;2023-06-14T18:25:27;1.10;;;0.98;;
9418;SDS011;4748;50.802;7.132;2023-06-14T18:27:52;1.60;;;0.90;;
9418;SDS011;4748;50.802;7.132;2023-06-14T18:30:18;1.05;;;1.05;;
9418;SDS011;4748;50.802;7.132;2023-06-14T18:32:44;1.10;;;1.10;;
9418;SDS011;4748;50.802;7.132;2023-06-14T18:35:12;3.20;;;1.10;;
9418;SDS011;4748;50.802;7.132;2023-06-14T18:37:39;1.50;;;1.40;;
9418;SDS011;4748;50.802;7.132;2023-06-14T18:40:05;1.30;;;1.25;;
9418;SDS011;4748;50.802;7.132;2023-06-14T18:42:31;1.33;;;1.20;;
9418;SDS011;4748;50.802;7.132;2023-06-14T18:44:57;4.13;;;1.40;;
9418;SDS011;4748;50.802;7.132;2023-06-14T18:47:22;1.00;;;1.00;;
9418;SDS011;4748;50.802;7.132;2023-06-14T18:49:48;0.90;;;0.90;;
9418;SDS011;4748;50.802;7.132;2023-06-14T18:52:13;3.15;;;0.85;;